sensor_id;sensor_type;location;lat;lon;timestamp;pressure;altitude;pressure_sealevel;temperature;humidity
77110;BME280;66062;52.464;16.922;2023-02-11T00:00:19;101887.31;;;1.56;88.54
77110;BME280;66062;52.464;16.922;2023-02-11T00:02:45;101895.22;;;1.56;88.74
77110;BME280;66062;52.464;16.922;2023-02-11T00:05:15;101891.56;;;1.60;87.62
77110;BME280;66062;52.464;16.922;2023-02-11T00:07:41;101893.28;;;1.61;88.01
77110;BME280;66062;52.464;16.922;2023-02-11T00:10:07;101882.75;;;1.61;88.10
77110;BME280;66062;52.464;16.922;2023-02-11T00:12:33;101887.94;;;1.63;87.83
77110;BME280;66062;52.464;16.922;2023-02-11T00:15:00;101884.38;;;1.65;87.71
77110;BME280;66062;52.464;16.922;2023-02-11T00:17:25;101879.91;;;1.67;87.46
77110;BME280;66062;52.464;16.922;2023-02-11T00:19:51;101874.69;;;1.66;87.48
77110;BME280;66062;52.464;16.922;2023-02-11T00:22:16;101872.94;;;1.66;87.57
77110;BME280;66062;52.464;16.922;2023-02-11T00:24:42;101871.91;;;1.70;86.59
77110;BME280;66062;52.464;16.922;2023-02-11T00:27:08;101869.13;;;1.75;86.32
77110;BME280;66062;52.464;16.922;2023-02-11T00:29:33;101871.00;;;1.71;86.91
77110;BME280;66062;52.464;16.922;2023-02-11T00:31:59;101862.94;;;1.76;86.30
77110;BME280;66062;52.464;16.922;2023-02-11T00:34:32;101864.59;;;1.79;86.39
77110;BME280;66062;52.464;16.922;2023-02-11T00:36:58;101868.06;;;1.81;86.36
77110;BME280;66062;52.464;16.922;2023-02-11T00:39:23;101872.72;;;1.73;86.03
77110;BME280;66062;52.464;16.922;2023-02-11T00:41:49;101871.59;;;1.80;86.18
77110;BME280;66062;52.464;16.922;2023-02-11T00:44:14;101852.13;;;1.84;85.77
77110;BME280;66062;52.464;16.922;2023-02-11T00:46:40;101828.81;;;1.73;86.19
77110;BME280;66062;52.464;16.922;2023-02-11T00:49:05;101820.47;;;1.62;86.91
77110;BME280;66062;52.464;16.922;2023-02-11T00:51:31;101789.47;;;1.70;86.28
77110;BME280;66062;52.464;16.922;2023-02-11T00:53:56;101784.22;;;1.70;86.14
77110;BME280;66062;52.464;16.922;2023-02-11T00:56:22;101772.03;;;1.67;86.31
77110;BME280;66062;52.464;16.922;2023-02-11T00:58:47;101780.94;;;1.63;85.70
77110;BME280;66062;52.464;16.922;2023-02-11T01:01:13;101775.47;;;1.69;86.21
77110;BME280;66062;52.464;16.922;2023-02-11T01:03:39;101768.59;;;1.65;85.97
77110;BME280;66062;52.464;16.922;2023-02-11T01:06:06;101761.53;;;1.67;85.95
77110;BME280;66062;52.464;16.922;2023-02-11T01:08:31;101750.75;;;1.73;85.45
77110;BME280;66062;52.464;16.922;2023-02-11T01:11:00;101727.75;;;1.79;85.08
77110;BME280;66062;52.464;16.922;2023-02-11T01:13:26;101731.13;;;1.59;85.67
77110;BME280;66062;52.464;16.922;2023-02-11T01:15:52;101724.44;;;1.73;85.54
77110;BME280;66062;52.464;16.922;2023-02-11T01:18:18;101716.19;;;1.59;85.56
77110;BME280;66062;52.464;16.922;2023-02-11T01:20:43;101719.47;;;1.66;85.49
77110;BME280;66062;52.464;16.922;2023-02-11T01:23:09;101730.34;;;1.80;84.94
77110;BME280;66062;52.464;16.922;2023-02-11T01:25:34;101720.94;;;1.73;84.78
77110;BME280;66062;52.464;16.922;2023-02-11T01:27:59;101716.22;;;1.83;84.55
77110;BME280;66062;52.464;16.922;2023-02-11T01:30:25;101726.56;;;1.87;83.88
77110;BME280;66062;52.464;16.922;2023-02-11T01:32:50;101746.00;;;1.83;84.06
77110;BME280;66062;52.464;16.922;2023-02-11T01:35:15;101738.88;;;1.87;83.56
77110;BME280;66062;52.464;16.922;2023-02-11T01:37:41;101743.31;;;1.85;83.82
77110;BME280;66062;52.464;16.922;2023-02-11T01:40:13;101757.38;;;1.84;83.49
77110;BME280;66062;52.464;16.922;2023-02-11T01:42:39;101759.81;;;1.90;83.33
77110;BME280;66062;52.464;16.922;2023-02-11T01:45:50;101766.09;;;1.86;83.42
77110;BME280;66062;52.464;16.922;2023-02-11T01:48:29;101777.44;;;1.88;83.28
77110;BME280;66062;52.464;16.922;2023-02-11T01:51:14;101776.41;;;1.92;83.40
77110;BME280;66062;52.464;16.922;2023-02-11T01:53:41;101783.50;;;1.90;83.30
77110;BME280;66062;52.464;16.922;2023-02-11T01:56:27;101789.66;;;1.89;83.29
77110;BME280;66062;52.464;16.922;2023-02-11T01:59:16;101783.50;;;1.90;82.79
77110;BME280;66062;52.464;16.922;2023-02-11T02:01:48;101771.16;;;1.92;83.02
77110;BME280;66062;52.464;16.922;2023-02-11T02:04:17;101765.66;;;1.98;82.76
77110;BME280;66062;52.464;16.922;2023-02-11T02:06:49;101742.53;;;2.06;82.25
77110;BME280;66062;52.464;16.922;2023-02-11T02:09:24;101734.69;;;2.04;82.05
77110;BME280;66062;52.464;16.922;2023-02-11T02:11:52;101735.88;;;1.96;82.52
77110;BME280;66062;52.464;16.922;2023-02-11T02:14:21;101733.13;;;1.99;82.54
77110;BME280;66062;52.464;16.922;2023-02-11T02:16:46;101713.75;;;2.01;82.03
77110;BME280;66062;52.464;16.922;2023-02-11T02:25:17;101677.75;;;2.02;81.90
77110;BME280;66062;52.464;16.922;2023-02-11T02:37:58;101693.31;;;2.08;81.42
77110;BME280;66062;52.464;16.922;2023-02-11T02:40:33;101684.47;;;2.09;81.31
77110;BME280;66062;52.464;16.922;2023-02-11T02:43:01;101677.38;;;2.11;81.11
77110;BME280;66062;52.464;16.922;2023-02-11T02:45:27;101667.94;;;2.05;81.12
77110;BME280;66062;52.464;16.922;2023-02-11T02:47:53;101675.91;;;2.04;81.68
77110;BME280;66062;52.464;16.922;2023-02-11T02:50:25;101674.81;;;2.09;81.13
77110;BME280;66062;52.464;16.922;2023-02-11T02:53:31;101668.69;;;2.09;81.28
77110;BME280;66062;52.464;16.922;2023-02-11T02:55:58;101682.09;;;2.03;81.66
77110;BME280;66062;52.464;16.922;2023-02-11T02:58:42;101658.03;;;2.12;81.25
77110;BME280;66062;52.464;16.922;2023-02-11T03:01:25;101652.53;;;2.18;81.03
77110;BME280;66062;52.464;16.922;2023-02-11T03:09:41;101655.00;;;2.23;80.79
77110;BME280;66062;52.464;16.922;2023-02-11T03:12:10;101648.84;;;2.22;80.40
77110;BME280;66062;52.464;16.922;2023-02-11T03:14:37;101657.72;;;2.20;80.68
77110;BME280;66062;52.464;16.922;2023-02-11T03:17:05;101645.56;;;2.17;80.79
77110;BME280;66062;52.464;16.922;2023-02-11T03:19:36;101648.00;;;2.22;80.28
77110;BME280;66062;52.464;16.922;2023-02-11T03:22:06;101646.94;;;2.26;79.91
77110;BME280;66062;52.464;16.922;2023-02-11T03:24:34;101646.66;;;2.33;79.80
77110;BME280;66062;52.464;16.922;2023-02-11T03:27:08;101630.00;;;2.33;79.75
77110;BME280;66062;52.464;16.922;2023-02-11T03:29:36;101616.75;;;2.34;79.71
77110;BME280;66062;52.464;16.922;2023-02-11T03:32:16;101607.97;;;2.34;79.71
77110;BME280;66062;52.464;16.922;2023-02-11T03:35:10;101596.09;;;2.24;80.26
77110;BME280;66062;52.464;16.922;2023-02-11T03:37:42;101588.16;;;2.25;80.02
77110;BME280;66062;52.464;16.922;2023-02-11T03:40:15;101575.59;;;2.32;79.93
77110;BME280;66062;52.464;16.922;2023-02-11T03:42:50;101589.69;;;2.31;79.59
77110;BME280;66062;52.464;16.922;2023-02-11T03:45:19;101587.97;;;2.30;79.86
77110;BME280;66062;52.464;16.922;2023-02-11T03:47:49;101581.84;;;2.29;79.89
77110;BME280;66062;52.464;16.922;2023-02-11T03:50:17;101580.97;;;2.29;80.93
77110;BME280;66062;52.464;16.922;2023-02-11T03:52:47;101580.81;;;2.33;80.06
77110;BME280;66062;52.464;16.922;2023-02-11T03:55:18;101555.25;;;2.35;80.33
77110;BME280;66062;52.464;16.922;2023-02-11T03:57:45;101559.84;;;2.30;80.29
77110;BME280;66062;52.464;16.922;2023-02-11T04:00:12;101539.59;;;2.32;80.53
77110;BME280;66062;52.464;16.922;2023-02-11T04:02:39;101548.41;;;2.31;80.42
77110;BME280;66062;52.464;16.922;2023-02-11T04:05:06;101543.94;;;2.33;80.37
77110;BME280;66062;52.464;16.922;2023-02-11T04:07:32;101542.28;;;2.31;81.14
77110;BME280;66062;52.464;16.922;2023-02-11T04:09:58;101532.59;;;2.31;80.54
77110;BME280;66062;52.464;16.922;2023-02-11T04:12:23;101542.03;;;2.37;80.87
77110;BME280;66062;52.464;16.922;2023-02-11T04:14:48;101531.53;;;2.35;80.86
77110;BME280;66062;52.464;16.922;2023-02-11T04:17:14;101522.66;;;2.38;80.75
77110;BME280;66062;52.464;16.922;2023-02-11T04:19:40;101522.78;;;2.35;81.44
77110;BME280;66062;52.464;16.922;2023-02-11T04:22:06;101529.56;;;2.40;80.67
77110;BME280;66062;52.464;16.922;2023-02-11T04:24:31;101528.66;;;2.41;81.21
77110;BME280;66062;52.464;16.922;2023-02-11T04:26:56;101515.75;;;2.35;81.63
77110;BME280;66062;52.464;16.922;2023-02-11T04:29:22;101513.03;;;2.37;81.87
77110;BME280;66062;52.464;16.922;2023-02-11T04:31:48;101514.75;;;2.38;82.32
77110;BME280;66062;52.464;16.922;2023-02-11T04:34:13;101509.28;;;2.42;82.01
77110;BME280;66062;52.464;16.922;2023-02-11T04:36:39;101501.44;;;2.41;81.80
77110;BME280;66062;52.464;16.922;2023-02-11T04:39:07;101497.19;;;2.38;82.24
77110;BME280;66062;52.464;16.922;2023-02-11T04:41:33;101506.00;;;2.37;82.76
77110;BME280;66062;52.464;16.922;2023-02-11T04:43:58;101511.13;;;2.40;82.50
77110;BME280;66062;52.464;16.922;2023-02-11T04:46:23;101495.53;;;2.36;83.11
77110;BME280;66062;52.464;16.922;2023-02-11T04:48:49;101501.50;;;2.39;82.60
77110;BME280;66062;52.464;16.922;2023-02-11T04:51:15;101505.19;;;2.35;83.11
77110;BME280;66062;52.464;16.922;2023-02-11T04:53:40;101504.28;;;2.36;83.10
77110;BME280;66062;52.464;16.922;2023-02-11T04:56:06;101500.06;;;2.32;84.09
77110;BME280;66062;52.464;16.922;2023-02-11T04:58:31;101501.97;;;2.29;83.92
77110;BME280;66062;52.464;16.922;2023-02-11T05:01:07;101498.31;;;2.33;84.00
77110;BME280;66062;52.464;16.922;2023-02-11T05:03:33;101488.75;;;2.30;84.33
77110;BME280;66062;52.464;16.922;2023-02-11T05:05:58;101488.03;;;2.27;84.87
77110;BME280;66062;52.464;16.922;2023-02-11T05:08:24;101485.34;;;2.28;84.84
77110;BME280;66062;52.464;16.922;2023-02-11T05:10:49;101475.81;;;2.24;85.28
77110;BME280;66062;52.464;16.922;2023-02-11T05:13:15;101470.56;;;2.24;85.64
77110;BME280;66062;52.464;16.922;2023-02-11T05:15:40;101459.72;;;2.32;85.74
77110;BME280;66062;52.464;16.922;2023-02-11T05:18:05;101463.41;;;2.28;85.88
77110;BME280;66062;52.464;16.922;2023-02-11T05:20:56;101465.91;;;2.31;85.60
77110;BME280;66062;52.464;16.922;2023-02-11T05:23:21;101482.81;;;2.25;85.96
77110;BME280;66062;52.464;16.922;2023-02-11T05:25:47;101469.25;;;2.34;85.84
77110;BME280;66062;52.464;16.922;2023-02-11T05:28:12;101464.94;;;2.33;85.81
77110;BME280;66062;52.464;16.922;2023-02-11T05:30:38;101461.50;;;2.31;86.20
77110;BME280;66062;52.464;16.922;2023-02-11T05:33:04;101451.16;;;2.27;86.10
77110;BME280;66062;52.464;16.922;2023-02-11T05:35:32;101454.28;;;2.35;86.10
77110;BME280;66062;52.464;16.922;2023-02-11T05:37:58;101451.59;;;2.36;86.08
77110;BME280;66062;52.464;16.922;2023-02-11T05:40:23;101454.09;;;2.39;85.97
77110;BME280;66062;52.464;16.922;2023-02-11T05:42:48;101450.69;;;2.37;86.17
77110;BME280;66062;52.464;16.922;2023-02-11T05:45:14;101451.75;;;2.33;85.83
77110;BME280;66062;52.464;16.922;2023-02-11T05:47:39;101440.16;;;2.37;86.25
77110;BME280;66062;52.464;16.922;2023-02-11T05:50:05;101440.16;;;2.37;86.24
77110;BME280;66062;52.464;16.922;2023-02-11T05:52:30;101438.28;;;2.39;85.88
77110;BME280;66062;52.464;16.922;2023-02-11T05:54:56;101443.72;;;2.36;86.05
77110;BME280;66062;52.464;16.922;2023-02-11T05:57:21;101457.53;;;2.41;86.01
77110;BME280;66062;52.464;16.922;2023-02-11T05:59:46;101434.78;;;2.39;85.93
77110;BME280;66062;52.464;16.922;2023-02-11T06:02:12;101451.41;;;2.41;86.12
77110;BME280;66062;52.464;16.922;2023-02-11T06:04:37;101446.19;;;2.39;86.05
77110;BME280;66062;52.464;16.922;2023-02-11T06:07:03;101439.09;;;2.41;86.38
77110;BME280;66062;52.464;16.922;2023-02-11T06:09:29;101438.81;;;2.47;85.91
77110;BME280;66062;52.464;16.922;2023-02-11T06:11:54;101434.31;;;2.49;86.55
77110;BME280;66062;52.464;16.922;2023-02-11T06:14:19;101436.41;;;2.43;86.79
77110;BME280;66062;52.464;16.922;2023-02-11T06:16:45;101442.53;;;2.43;87.22
77110;BME280;66062;52.464;16.922;2023-02-11T06:19:11;101446.19;;;2.39;87.81
77110;BME280;66062;52.464;16.922;2023-02-11T06:21:37;101433.75;;;2.43;87.74
77110;BME280;66062;52.464;16.922;2023-02-11T06:24:02;101433.56;;;2.47;87.75
77110;BME280;66062;52.464;16.922;2023-02-11T06:26:29;101437.06;;;2.48;88.24
77110;BME280;66062;52.464;16.922;2023-02-11T06:28:54;101438.88;;;2.46;88.64
77110;BME280;66062;52.464;16.922;2023-02-11T06:31:20;101444.22;;;2.44;89.23
77110;BME280;66062;52.464;16.922;2023-02-11T06:33:45;101434.53;;;2.45;89.85
77110;BME280;66062;52.464;16.922;2023-02-11T06:36:13;101433.75;;;2.43;90.96
77110;BME280;66062;52.464;16.922;2023-02-11T06:38:39;101420.84;;;2.37;91.17
77110;BME280;66062;52.464;16.922;2023-02-11T06:41:05;101426.25;;;2.34;92.10
77110;BME280;66062;52.464;16.922;2023-02-11T06:43:30;101435.81;;;2.36;92.51
77110;BME280;66062;52.464;16.922;2023-02-11T06:45:55;101435.59;;;2.41;93.11
77110;BME280;66062;52.464;16.922;2023-02-11T06:48:22;101432.97;;;2.41;92.92
77110;BME280;66062;52.464;16.922;2023-02-11T06:50:48;101439.09;;;2.41;92.75
77110;BME280;66062;52.464;16.922;2023-02-11T06:53:13;101442.38;;;2.46;92.62
77110;BME280;66062;52.464;16.922;2023-02-11T06:55:38;101434.41;;;2.48;92.45
77110;BME280;66062;52.464;16.922;2023-02-11T06:58:04;101427.06;;;2.54;91.95
77110;BME280;66062;52.464;16.922;2023-02-11T07:00:29;101413.03;;;2.54;92.27
77110;BME280;66062;52.464;16.922;2023-02-11T07:02:55;101416.34;;;2.59;92.13
77110;BME280;66062;52.464;16.922;2023-02-11T07:05:20;101399.53;;;2.62;92.44
77110;BME280;66062;52.464;16.922;2023-02-11T07:07:45;101402.97;;;2.64;92.48
77110;BME280;66062;52.464;16.922;2023-02-11T07:10:11;101409.91;;;2.65;93.23
77110;BME280;66062;52.464;16.922;2023-02-11T07:12:37;101410.78;;;2.65;93.41
77110;BME280;66062;52.464;16.922;2023-02-11T07:15:02;101409.66;;;2.71;93.15
77110;BME280;66062;52.464;16.922;2023-02-11T07:17:28;101403.19;;;2.78;92.58
77110;BME280;66062;52.464;16.922;2023-02-11T07:19:53;101400.38;;;2.81;92.25
77110;BME280;66062;52.464;16.922;2023-02-11T07:22:18;101396.56;;;2.88;91.70
77110;BME280;66062;52.464;16.922;2023-02-11T07:24:44;101404.47;;;2.88;91.85
77110;BME280;66062;52.464;16.922;2023-02-11T07:27:09;101387.28;;;2.98;91.06
77110;BME280;66062;52.464;16.922;2023-02-11T07:29:34;101385.41;;;3.00;90.91
77110;BME280;66062;52.464;16.922;2023-02-11T07:32:00;101395.41;;;2.93;91.56
77110;BME280;66062;52.464;16.922;2023-02-11T07:34:25;101397.66;;;3.01;91.95
77110;BME280;66062;52.464;16.922;2023-02-11T07:36:52;101392.56;;;2.98;91.50
77110;BME280;66062;52.464;16.922;2023-02-11T07:39:17;101397.97;;;2.95;92.12
77110;BME280;66062;52.464;16.922;2023-02-11T07:41:44;101388.84;;;3.02;92.33
77110;BME280;66062;52.464;16.922;2023-02-11T07:44:12;101392.13;;;3.07;91.35
77110;BME280;66062;52.464;16.922;2023-02-11T07:46:37;101390.69;;;3.00;91.82
77110;BME280;66062;52.464;16.922;2023-02-11T07:49:07;101391.41;;;3.04;92.18
77110;BME280;66062;52.464;16.922;2023-02-11T07:51:32;101385.41;;;3.00;91.87
77110;BME280;66062;52.464;16.922;2023-02-11T07:53:58;101388.56;;;3.08;91.75
77110;BME280;66062;52.464;16.922;2023-02-11T07:56:24;101394.59;;;3.10;91.58
77110;BME280;66062;52.464;16.922;2023-02-11T07:58:50;101388.28;;;3.14;91.55
77110;BME280;66062;52.464;16.922;2023-02-11T08:01:22;101390.75;;;3.17;91.49
77110;BME280;66062;52.464;16.922;2023-02-11T08:03:54;101404.94;;;3.15;91.95
77110;BME280;66062;52.464;16.922;2023-02-11T08:06:22;101403.88;;;3.19;92.29
77110;BME280;66062;52.464;16.922;2023-02-11T08:08:48;101415.69;;;3.10;93.27
77110;BME280;66062;52.464;16.922;2023-02-11T08:11:16;101414.78;;;3.11;93.97
77110;BME280;66062;52.464;16.922;2023-02-11T08:13:43;101426.88;;;3.15;94.10
77110;BME280;66062;52.464;16.922;2023-02-11T08:16:17;101430.47;;;3.14;94.17
77110;BME280;66062;52.464;16.922;2023-02-11T08:18:42;101408.22;;;3.20;93.99
77110;BME280;66062;52.464;16.922;2023-02-11T08:21:08;101396.50;;;3.25;93.95
77110;BME280;66062;52.464;16.922;2023-02-11T08:23:39;101408.63;;;3.29;93.12
77110;BME280;66062;52.464;16.922;2023-02-11T08:26:07;101409.09;;;3.37;92.98
77110;BME280;66062;52.464;16.922;2023-02-11T08:28:37;101395.63;;;3.43;92.48
77110;BME280;66062;52.464;16.922;2023-02-11T08:31:12;101401.66;;;3.45;91.96
77110;BME280;66062;52.464;16.922;2023-02-11T08:33:38;101394.47;;;3.49;91.83
77110;BME280;66062;52.464;16.922;2023-02-11T08:36:14;101399.75;;;3.49;91.83
77110;BME280;66062;52.464;16.922;2023-02-11T08:38:40;101388.31;;;3.49;91.57
77110;BME280;66062;52.464;16.922;2023-02-11T08:41:06;101398.88;;;3.49;91.70
77110;BME280;66062;52.464;16.922;2023-02-11T08:43:32;101397.78;;;3.53;91.98
77110;BME280;66062;52.464;16.922;2023-02-11T08:45:58;101386.88;;;3.60;91.12
77110;BME280;66062;52.464;16.922;2023-02-11T08:48:24;101390.81;;;3.52;91.71
77110;BME280;66062;52.464;16.922;2023-02-11T08:50:50;101387.88;;;3.58;91.52
77110;BME280;66062;52.464;16.922;2023-02-11T08:53:15;101383.03;;;3.66;90.99
77110;BME280;66062;52.464;16.922;2023-02-11T08:55:48;101389.13;;;3.68;90.60
77110;BME280;66062;52.464;16.922;2023-02-11T08:58:13;101388.25;;;3.67;90.62
77110;BME280;66062;52.464;16.922;2023-02-11T09:00:39;101388.19;;;3.69;90.86
77110;BME280;66062;52.464;16.922;2023-02-11T09:03:04;101381.97;;;3.70;90.60
77110;BME280;66062;52.464;16.922;2023-02-11T09:05:29;101379.19;;;3.73;90.76
77110;BME280;66062;52.464;16.922;2023-02-11T09:07:55;101390.59;;;3.73;90.81
77110;BME280;66062;52.464;16.922;2023-02-11T09:10:20;101396.66;;;3.75;90.73
77110;BME280;66062;52.464;16.922;2023-02-11T09:12:45;101401.22;;;3.72;90.92
77110;BME280;66062;52.464;16.922;2023-02-11T09:15:12;101402.41;;;3.83;90.78
77110;BME280;66062;52.464;16.922;2023-02-11T09:17:38;101395.47;;;3.81;91.01
77110;BME280;66062;52.464;16.922;2023-02-11T09:20:03;101408.84;;;3.78;91.25
77110;BME280;66062;52.464;16.922;2023-02-11T09:22:29;101405.91;;;3.84;91.15
77110;BME280;66062;52.464;16.922;2023-02-11T09:24:54;101387.19;;;3.88;91.10
77110;BME280;66062;52.464;16.922;2023-02-11T09:27:19;101380.13;;;3.89;90.89
77110;BME280;66062;52.464;16.922;2023-02-11T09:29:45;101383.31;;;3.96;90.65
77110;BME280;66062;52.464;16.922;2023-02-11T09:32:12;101368.06;;;4.01;90.34
77110;BME280;66062;52.464;16.922;2023-02-11T09:34:37;101370.06;;;4.13;90.29
77110;BME280;66062;52.464;16.922;2023-02-11T09:37:02;101379.31;;;4.21;89.88
77110;BME280;66062;52.464;16.922;2023-02-11T09:39:28;101362.25;;;4.11;90.26
77110;BME280;66062;52.464;16.922;2023-02-11T09:42:12;101369.91;;;4.16;90.23
77110;BME280;66062;52.464;16.922;2023-02-11T09:44:45;101367.47;;;4.28;90.00
77110;BME280;66062;52.464;16.922;2023-02-11T09:49:49;101358.31;;;4.51;88.11
77110;BME280;66062;52.464;16.922;2023-02-11T09:54:57;101373.72;;;4.43;88.91
77110;BME280;66062;52.464;16.922;2023-02-11T09:57:26;101369.63;;;4.38;88.97
77110;BME280;66062;52.464;16.922;2023-02-11T09:59:53;101370.22;;;4.43;89.50
77110;BME280;66062;52.464;16.922;2023-02-11T10:07:56;101380.94;;;4.57;89.22
77110;BME280;66062;52.464;16.922;2023-02-11T10:10:53;101360.81;;;4.70;88.46
77110;BME280;66062;52.464;16.922;2023-02-11T10:13:42;101339.47;;;4.73;89.09
77110;BME280;66062;52.464;16.922;2023-02-11T10:16:41;101334.38;;;4.86;88.34
77110;BME280;66062;52.464;16.922;2023-02-11T10:22:24;101329.22;;;4.98;87.76
77110;BME280;66062;52.464;16.922;2023-02-11T10:24:56;101330.94;;;4.99;88.21
77110;BME280;66062;52.464;16.922;2023-02-11T10:27:31;101317.13;;;4.94;88.89
77110;BME280;66062;52.464;16.922;2023-02-11T10:30:08;101315.84;;;5.01;89.34
77110;BME280;66062;52.464;16.922;2023-02-11T10:32:59;101294.41;;;5.06;89.60
77110;BME280;66062;52.464;16.922;2023-02-11T10:35:27;101293.22;;;5.11;89.32
77110;BME280;66062;52.464;16.922;2023-02-11T10:37:53;101290.72;;;5.08;90.09
77110;BME280;66062;52.464;16.922;2023-02-11T10:40:22;101291.94;;;5.03;90.96
77110;BME280;66062;52.464;16.922;2023-02-11T10:43:12;101282.31;;;5.02;91.40
77110;BME280;66062;52.464;16.922;2023-02-11T10:45:38;101288.09;;;5.08;90.98
77110;BME280;66062;52.464;16.922;2023-02-11T10:48:36;101283.38;;;5.13;91.54
77110;BME280;66062;52.464;16.922;2023-02-11T10:51:17;101284.00;;;5.03;91.76
77110;BME280;66062;52.464;16.922;2023-02-11T10:53:46;101290.13;;;5.03;92.21
77110;BME280;66062;52.464;16.922;2023-02-11T10:56:25;101283.53;;;4.96;92.69
77110;BME280;66062;52.464;16.922;2023-02-11T10:59:00;101253.66;;;4.94;92.90
77110;BME280;66062;52.464;16.922;2023-02-11T11:01:42;101237.13;;;4.91;93.64
77110;BME280;66062;52.464;16.922;2023-02-11T11:04:36;101242.31;;;4.92;92.98
77110;BME280;66062;52.464;16.922;2023-02-11T11:07:25;101228.72;;;4.98;93.05
77110;BME280;66062;52.464;16.922;2023-02-11T11:09:55;101230.06;;;5.05;93.34
77110;BME280;66062;52.464;16.922;2023-02-11T11:17:52;101204.00;;;5.13;92.12
77110;BME280;66062;52.464;16.922;2023-02-11T11:20:32;101196.47;;;5.07;92.00
77110;BME280;66062;52.464;16.922;2023-02-11T11:23:30;101207.88;;;5.08;92.16
77110;BME280;66062;52.464;16.922;2023-02-11T11:26:16;101218.56;;;5.06;92.41
77110;BME280;66062;52.464;16.922;2023-02-11T11:31:17;101212.34;;;5.07;92.94
77110;BME280;66062;52.464;16.922;2023-02-11T11:33:44;101197.41;;;5.06;93.46
77110;BME280;66062;52.464;16.922;2023-02-11T11:36:13;101209.78;;;5.06;93.43
77110;BME280;66062;52.464;16.922;2023-02-11T11:38:51;101218.44;;;5.08;94.04
77110;BME280;66062;52.464;16.922;2023-02-11T11:46:44;101226.50;;;5.06;94.89
77110;BME280;66062;52.464;16.922;2023-02-11T11:49:35;101234.50;;;5.05;94.69
77110;BME280;66062;52.464;16.922;2023-02-11T11:52:34;101257.31;;;5.07;95.09
77110;BME280;66062;52.464;16.922;2023-02-11T11:58:19;101261.88;;;5.20;94.65
77110;BME280;66062;52.464;16.922;2023-02-11T12:09:39;101273.75;;;5.12;97.65
77110;BME280;66062;52.464;16.922;2023-02-11T12:15:28;101265.13;;;5.09;98.96
77110;BME280;66062;52.464;16.922;2023-02-11T12:24:06;101284.22;;;5.14;99.43
77110;BME280;66062;52.464;16.922;2023-02-11T12:26:55;101277.34;;;5.11;100.00
77110;BME280;66062;52.464;16.922;2023-02-11T12:38:05;101270.34;;;5.10;100.00
77110;BME280;66062;52.464;16.922;2023-02-11T12:40:45;101282.53;;;5.13;100.00
77110;BME280;66062;52.464;16.922;2023-02-11T12:43:37;101275.13;;;5.04;100.00
77110;BME280;66062;52.464;16.922;2023-02-11T12:46:32;101291.50;;;5.10;100.00
77110;BME280;66062;52.464;16.922;2023-02-11T12:54:34;101285.16;;;5.13;100.00
77110;BME280;66062;52.464;16.922;2023-02-11T12:57:10;101293.53;;;5.21;100.00
77110;BME280;66062;52.464;16.922;2023-02-11T13:05:26;101283.16;;;5.18;100.00
77110;BME280;66062;52.464;16.922;2023-02-11T13:08:03;101275.22;;;5.18;100.00
77110;BME280;66062;52.464;16.922;2023-02-11T13:10:35;101285.69;;;5.20;100.00
77110;BME280;66062;52.464;16.922;2023-02-11T13:13:12;101278.59;;;5.20;100.00
77110;BME280;66062;52.464;16.922;2023-02-11T13:15:50;101289.09;;;5.22;100.00
77110;BME280;66062;52.464;16.922;2023-02-11T13:18:26;101282.53;;;5.13;100.00
77110;BME280;66062;52.464;16.922;2023-02-11T13:21:15;101274.38;;;5.32;100.00
77110;BME280;66062;52.464;16.922;2023-02-11T13:24:08;101267.88;;;5.37;100.00
77110;BME280;66062;52.464;16.922;2023-02-11T13:26:44;101277.69;;;5.35;100.00
77110;BME280;66062;52.464;16.922;2023-02-11T13:29:30;101281.19;;;5.36;100.00
77110;BME280;66062;52.464;16.922;2023-02-11T13:37:29;101291.44;;;5.42;100.00
77110;BME280;66062;52.464;16.922;2023-02-11T13:40:00;101297.47;;;5.44;100.00
77110;BME280;66062;52.464;16.922;2023-02-11T13:42:27;101293.03;;;5.44;100.00
77110;BME280;66062;52.464;16.922;2023-02-11T13:44:54;101299.94;;;5.47;100.00
77110;BME280;66062;52.464;16.922;2023-02-11T13:47:41;101296.66;;;5.43;100.00
77110;BME280;66062;52.464;16.922;2023-02-11T13:53:09;101307.53;;;5.53;100.00
77110;BME280;66062;52.464;16.922;2023-02-11T13:55:44;101294.66;;;5.47;100.00
77110;BME280;66062;52.464;16.922;2023-02-11T14:11:51;101284.56;;;5.53;100.00
77110;BME280;66062;52.464;16.922;2023-02-11T14:14:26;101285.97;;;5.59;100.00
77110;BME280;66062;52.464;16.922;2023-02-11T14:22:04;101294.69;;;5.61;100.00
77110;BME280;66062;52.464;16.922;2023-02-11T14:27:26;101305.94;;;5.65;100.00
77110;BME280;66062;52.464;16.922;2023-02-11T14:38:29;101332.91;;;5.71;100.00
77110;BME280;66062;52.464;16.922;2023-02-11T14:41:06;101329.41;;;5.71;100.00
77110;BME280;66062;52.464;16.922;2023-02-11T14:43:39;101337.44;;;5.69;100.00
77110;BME280;66062;52.464;16.922;2023-02-11T14:46:07;101346.16;;;5.71;100.00
77110;BME280;66062;52.464;16.922;2023-02-11T14:48:53;101345.31;;;5.71;100.00
77110;BME280;66062;52.464;16.922;2023-02-11T14:51:25;101352.31;;;5.72;100.00
77110;BME280;66062;52.464;16.922;2023-02-11T14:53:55;101357.59;;;5.72;100.00
77110;BME280;66062;52.464;16.922;2023-02-11T14:56:27;101367.34;;;5.71;100.00
77110;BME280;66062;52.464;16.922;2023-02-11T14:58:55;101374.16;;;5.75;100.00
77110;BME280;66062;52.464;16.922;2023-02-11T15:01:24;101382.59;;;5.82;100.00
77110;BME280;66062;52.464;16.922;2023-02-11T15:03:52;101377.59;;;5.77;100.00
77110;BME280;66062;52.464;16.922;2023-02-11T15:06:43;101372.44;;;5.74;100.00
77110;BME280;66062;52.464;16.922;2023-02-11T15:09:45;101373.47;;;5.87;100.00
77110;BME280;66062;52.464;16.922;2023-02-11T15:12:27;101377.03;;;5.86;100.00